createdAt,value
2019-01-08T00:53:35.503Z,5.09
2019-01-08T00:56:06.250Z,5.13
2019-01-08T00:58:37.057Z,5.11
2019-01-08T01:01:07.879Z,5.04
2019-01-08T01:03:38.755Z,5.03
2019-01-08T01:06:09.519Z,5.02
2019-01-08T01:08:40.355Z,5.02
2019-01-08T01:11:11.111Z,5.00
2019-01-08T01:13:41.939Z,5.09
2019-01-08T01:16:12.740Z,4.99
2019-01-08T01:18:43.846Z,4.97
2019-01-08T01:21:14.676Z,5.00
2019-01-08T01:23:46.999Z,5.00
2019-01-08T01:26:17.925Z,4.93
2019-01-08T01:28:48.861Z,4.93
2019-01-08T01:31:19.723Z,4.96
2019-01-08T01:33:50.576Z,4.99
2019-01-08T01:36:21.382Z,4.99
2019-01-08T01:38:55.223Z,4.91
2019-01-08T01:41:26.065Z,4.95
2019-01-08T01:43:56.879Z,4.93
2019-01-08T01:46:27.819Z,4.92
2019-01-08T01:48:58.654Z,4.88
2019-01-08T01:51:29.475Z,4.87
2019-01-08T01:54:00.271Z,4.90
2019-01-08T01:56:31.107Z,4.88
2019-01-08T01:59:08.253Z,4.88
2019-01-08T02:01:34.522Z,4.88
2019-01-08T02:04:05.409Z,4.90
2019-01-08T02:06:38.286Z,4.85
2019-01-08T02:09:09.319Z,4.85
2019-01-08T02:11:43.501Z,4.91
2019-01-08T02:14:14.262Z,4.89
2019-01-08T02:16:45.135Z,4.89
2019-01-08T02:19:15.979Z,4.85
2019-01-08T02:21:46.841Z,4.86
2019-01-08T02:24:17.638Z,4.85
2019-01-08T02:26:48.560Z,4.82
2019-01-08T03:43:34.733Z,4.90
2019-01-08T03:46:08.249Z,5.02
2019-01-08T03:48:59.046Z,4.94
2019-01-08T03:51:31.066Z,5.05
2019-01-08T03:54:03.626Z,4.98
2019-01-08T03:56:34.401Z,5.03
2019-01-08T03:59:05.366Z,5.06
2019-01-08T04:01:36.305Z,5.05
2019-01-08T04:04:08.637Z,4.98
2019-01-08T04:06:43.695Z,5.01
2019-01-08T04:09:28.029Z,5.00
2019-01-08T04:11:59.090Z,4.97
2019-01-08T04:14:30.033Z,4.98
2019-01-08T04:17:01.082Z,4.96
2019-01-08T04:19:31.827Z,4.98
2019-01-08T04:22:05.064Z,4.98
2019-01-08T04:24:38.093Z,5.00
2019-01-08T04:27:11.285Z,5.12
2019-01-08T04:29:51.269Z,5.05
2019-01-08T04:32:22.373Z,5.05
2019-01-08T04:34:53.247Z,5.11
2019-01-08T04:37:24.083Z,5.12
2019-01-08T04:39:56.338Z,5.11
2019-01-08T04:42:28.970Z,5.10
2019-01-08T04:45:02.455Z,5.11
2019-01-08T04:47:34.920Z,5.14
2019-01-08T04:50:12.897Z,5.17
2019-01-08T04:52:45.089Z,5.14
2019-01-08T04:55:15.992Z,5.11
2019-01-08T04:57:46.924Z,5.08
2019-01-08T05:00:18.580Z,5.07
2019-01-08T05:02:49.465Z,5.12
2019-01-08T05:05:20.449Z,5.10
2019-01-08T05:07:51.295Z,5.12
2019-01-08T05:10:22.173Z,5.11
2019-01-08T05:12:52.969Z,5.10
2019-01-08T05:15:23.841Z,5.06
2019-01-08T05:17:54.672Z,5.05
2019-01-08T05:20:25.705Z,5.04
2019-01-08T05:22:56.543Z,5.05
2019-01-08T05:25:27.384Z,4.99
2019-01-08T05:27:58.310Z,4.79
2019-01-08T05:30:29.152Z,4.66
2019-01-08T05:33:00.019Z,4.54
2019-01-08T05:35:32.989Z,4.67
2019-01-08T05:38:10.269Z,4.73
2019-01-08T05:40:43.161Z,4.79
2019-01-08T05:43:14.161Z,4.75
2019-01-08T05:45:44.989Z,4.77
2019-01-08T05:48:15.776Z,4.80
2019-01-08T05:50:46.613Z,4.84
2019-01-08T05:53:17.572Z,4.84
2019-01-08T05:55:48.425Z,4.84
2019-01-08T05:58:19.170Z,4.86
2019-01-08T06:00:49.969Z,4.91
2019-01-08T06:03:20.740Z,4.97
2019-01-08T06:05:51.526Z,5.03
2019-01-08T06:08:22.380Z,5.05
2019-01-08T06:10:53.272Z,5.09
2019-01-08T06:13:24.191Z,5.14
2019-01-08T06:15:54.988Z,5.12
2019-01-08T06:18:30.147Z,5.15
2019-01-08T06:21:02.777Z,5.12
2019-01-08T06:23:36.637Z,5.16
2019-01-08T06:26:07.405Z,5.10
2019-01-08T06:28:38.268Z,4.98
2019-01-08T06:31:11.188Z,4.86
2019-01-08T06:33:41.893Z,4.88
2019-01-08T06:36:12.758Z,4.90
2019-01-08T06:38:44.140Z,4.90
2019-01-08T06:41:14.972Z,4.92
2019-01-08T06:43:45.720Z,4.93
2019-01-08T06:46:16.498Z,5.00
2019-01-08T06:48:48.418Z,5.05
2019-01-08T06:51:19.368Z,5.10
2019-01-08T06:53:50.104Z,5.19
2019-01-08T06:56:20.875Z,5.16
2019-01-08T06:58:51.628Z,5.11
2019-01-08T07:01:22.404Z,5.02
2019-01-08T07:03:53.150Z,4.94
2019-01-08T07:06:23.988Z,5.02
2019-01-08T07:08:54.791Z,5.03
2019-01-08T07:11:25.533Z,5.05
2019-01-08T07:13:56.289Z,5.08
2019-01-08T07:16:27.144Z,5.10
2019-01-08T07:18:57.928Z,5.13
2019-01-08T07:21:28.740Z,5.15
2019-01-08T07:23:59.477Z,5.18
2019-01-08T07:26:30.280Z,5.29
2019-01-08T07:29:01.167Z,5.36
2019-01-08T07:31:31.879Z,5.44
2019-01-08T07:34:02.614Z,5.49
2019-01-08T07:36:33.400Z,5.57
2019-01-08T07:39:05.368Z,5.73
2019-01-08T07:41:36.159Z,5.72
2019-01-08T07:44:06.996Z,5.75
2019-01-08T07:46:37.851Z,5.77
2019-01-08T07:49:08.586Z,5.70
2019-01-08T07:51:39.360Z,5.72
2019-01-08T07:54:10.179Z,5.91
2019-01-08T07:56:40.964Z,5.80
2019-01-08T07:59:11.760Z,5.79
2019-01-08T08:01:42.537Z,5.85
2019-01-08T08:04:13.333Z,5.81
2019-01-08T08:06:44.136Z,5.88
2019-01-08T08:09:14.964Z,5.81
2019-01-08T08:11:45.742Z,5.82
2019-01-08T08:14:16.458Z,5.94
2019-01-08T08:16:47.223Z,5.88
2019-01-08T08:19:18.080Z,5.85
2019-01-08T08:21:48.852Z,5.92
2019-01-08T08:24:19.636Z,5.93
2019-01-08T08:26:50.415Z,5.95
2019-01-08T08:29:21.230Z,5.96
2019-01-08T08:31:51.964Z,5.95
2019-01-08T08:34:23.643Z,5.83
2019-01-08T08:36:54.366Z,5.82
2019-01-08T08:39:25.115Z,5.88
2019-01-08T08:41:55.883Z,5.84
2019-01-08T08:44:26.683Z,5.87
2019-01-08T08:46:57.584Z,6.05
2019-01-08T08:49:28.467Z,5.88
2019-01-08T08:51:59.235Z,5.96
2019-01-08T08:54:29.972Z,5.99
2019-01-08T08:57:00.752Z,5.97
2019-01-08T08:59:31.546Z,5.87
2019-01-08T09:02:02.305Z,5.82
2019-01-08T09:04:33.079Z,5.82
2019-01-08T09:07:03.803Z,5.71
2019-01-08T09:09:34.564Z,5.54
2019-01-08T09:12:05.257Z,5.47
2019-01-08T09:14:36.048Z,5.63
2019-01-08T09:17:06.775Z,5.51
2019-01-08T09:19:37.579Z,5.48
2019-01-08T09:22:08.363Z,5.41
2019-01-08T09:24:39.185Z,5.51
2019-01-08T09:27:09.979Z,5.62
2019-01-08T09:29:40.727Z,5.84
2019-01-08T09:32:13.007Z,6.05
2019-01-08T09:34:43.797Z,6.38
2019-01-08T09:37:14.686Z,6.19
2019-01-08T09:39:45.531Z,5.97
2019-01-08T09:42:16.395Z,5.78
2019-01-08T09:44:47.183Z,5.65
2019-01-08T09:47:17.939Z,5.58
2019-01-08T09:49:48.655Z,5.72
2019-01-08T09:52:19.417Z,5.78
2019-01-08T09:54:50.150Z,5.72
2019-01-08T09:57:20.947Z,5.79
2019-01-08T09:59:51.735Z,5.77
2019-01-08T10:02:22.527Z,5.91
2019-01-08T10:04:53.291Z,6.09
2019-01-08T10:07:24.023Z,6.01
2019-01-08T10:09:54.806Z,5.99
2019-01-08T10:12:25.560Z,6.10
2019-01-08T10:14:56.301Z,5.99
2019-01-08T10:17:27.095Z,5.98
2019-01-08T10:19:57.862Z,6.12
2019-01-08T10:22:28.650Z,6.34
2019-01-08T10:24:59.384Z,6.19
2019-01-08T10:27:30.166Z,6.15
2019-01-08T10:30:00.935Z,6.37
2019-01-08T10:32:31.660Z,6.48
2019-01-08T10:35:02.537Z,6.53
2019-01-08T10:37:33.401Z,6.71
2019-01-08T10:40:04.355Z,6.93
2019-01-08T10:42:35.153Z,6.92
2019-01-08T10:45:06.051Z,6.91
2019-01-08T10:47:36.778Z,6.96
2019-01-08T10:50:08.167Z,7.03
2019-01-08T10:52:38.927Z,6.86
2019-01-08T10:55:09.719Z,6.97
2019-01-08T10:57:40.455Z,7.10
2019-01-08T11:00:12.089Z,6.99
2019-01-08T11:02:42.827Z,6.71
2019-01-08T11:05:13.584Z,6.73
2019-01-08T11:07:44.396Z,6.31
2019-01-08T11:10:15.166Z,6.28
2019-01-08T11:12:45.952Z,6.14
2019-01-08T11:15:16.734Z,6.12
2019-01-08T11:17:47.620Z,5.93
2019-01-08T11:20:18.378Z,5.98
2019-01-08T11:22:49.154Z,5.99
2019-01-08T11:25:19.933Z,5.85
2019-01-08T11:27:50.779Z,5.77
2019-01-08T11:30:21.622Z,5.75
2019-01-08T11:32:52.393Z,5.66
2019-01-08T11:35:23.152Z,5.61
2019-01-08T11:37:53.962Z,5.55
2019-01-08T11:40:24.807Z,5.75
2019-01-08T11:42:55.675Z,5.77
2019-01-08T11:45:26.482Z,5.82
2019-01-08T11:48:03.765Z,5.98
2019-01-08T11:50:29.717Z,5.92
2019-01-08T11:53:00.509Z,5.93
2019-01-08T11:55:31.366Z,6.13
2019-01-08T11:58:02.151Z,5.95
2019-01-08T12:00:32.963Z,5.94
2019-01-08T12:03:03.870Z,5.90
2019-01-08T12:05:34.710Z,5.71
2019-01-08T12:08:05.562Z,5.78
2019-01-08T12:10:37.390Z,5.78
2019-01-08T12:13:08.170Z,5.75
2019-01-08T12:15:39.104Z,5.76
2019-01-08T12:18:10.088Z,5.86
2019-01-08T12:20:40.929Z,5.73
2019-01-08T12:23:11.774Z,5.78
2019-01-08T12:25:42.538Z,5.76
2019-01-08T12:28:13.302Z,5.66
2019-01-08T12:30:44.173Z,5.72
2019-01-08T12:33:15.074Z,5.84
2019-01-08T12:35:45.958Z,5.83
2019-01-08T12:38:16.794Z,5.72
2019-01-08T12:54:09.486Z,5.69
2019-01-08T12:56:40.892Z,5.70
2019-01-08T12:59:11.634Z,5.69
2019-01-08T13:01:42.463Z,5.58
2019-01-08T13:04:13.238Z,5.45
2019-01-08T13:06:48.888Z,5.56
2019-01-08T13:09:21.777Z,5.65
2019-01-08T13:11:52.578Z,5.69
2019-01-08T13:14:24.419Z,5.52
2019-01-08T13:16:55.168Z,5.46
2019-01-08T13:19:26.081Z,5.53
2019-01-08T13:22:00.779Z,5.66
2019-01-08T13:24:33.095Z,5.68
2019-01-08T13:27:06.984Z,5.71
2019-01-08T13:29:37.813Z,5.78
2019-01-08T13:32:08.693Z,5.76
2019-01-08T13:34:39.480Z,5.63
2019-01-08T13:37:10.329Z,5.73
2019-01-08T13:39:41.122Z,5.69
2019-01-08T13:42:13.731Z,5.69
2019-01-08T13:44:44.529Z,5.87
2019-01-08T13:47:15.297Z,5.81
2019-01-08T13:49:46.686Z,5.84
2019-01-08T13:52:19.826Z,5.80
2019-01-08T13:54:50.593Z,5.90
2019-01-08T13:57:21.369Z,5.92
2019-01-08T13:59:52.145Z,5.96
2019-01-08T14:02:31.638Z,5.99
2019-01-08T14:04:55.514Z,6.00
2019-01-08T14:07:26.224Z,5.99
2019-01-08T14:09:57.071Z,5.93
2019-01-08T14:12:27.844Z,6.00
2019-01-08T14:14:58.611Z,6.04
2019-01-08T14:17:29.389Z,5.91
2019-01-08T14:20:00.184Z,6.03
2019-01-08T14:22:30.911Z,6.09
2019-01-08T14:25:01.680Z,6.23
2019-01-08T14:27:32.432Z,6.21
2019-01-08T14:30:03.622Z,6.18
2019-01-08T14:32:40.548Z,6.14
2019-01-08T14:35:06.982Z,6.14
2019-01-08T14:37:37.781Z,6.24
2019-01-08T14:40:08.694Z,6.12
2019-01-08T14:42:39.432Z,6.25
2019-01-08T14:45:12.565Z,6.20
2019-01-08T14:47:43.281Z,6.21
2019-01-08T14:50:14.076Z,6.24
2019-01-08T14:52:45.008Z,6.12
2019-01-08T15:12:23.834Z,6.21
2019-01-08T15:14:55.955Z,6.28
2019-01-08T15:17:26.764Z,6.16
2019-01-08T15:19:57.644Z,6.24
2019-01-08T15:22:28.597Z,6.17
2019-01-08T15:24:59.540Z,6.15
2019-01-08T15:27:30.533Z,6.13
2019-01-08T15:30:01.321Z,6.10
2019-01-08T15:32:32.102Z,6.14
2019-01-08T15:35:02.888Z,6.04
2019-01-08T15:37:33.650Z,6.16
2019-01-08T15:40:04.840Z,6.20
2019-01-08T15:42:35.729Z,6.16
2019-01-08T15:45:06.718Z,6.23
2019-01-08T15:47:39.217Z,6.24
2019-01-08T15:50:10.276Z,6.23
2019-01-08T15:52:43.192Z,6.27
2019-01-08T15:55:13.808Z,6.29
2019-01-08T15:57:45.104Z,6.22
2019-01-08T16:00:15.907Z,6.26
2019-01-08T16:02:46.767Z,6.32
2019-01-08T16:05:17.621Z,6.29
2019-01-08T16:07:48.596Z,6.26
2019-01-08T16:10:19.445Z,6.24
2019-01-08T16:12:50.398Z,6.13
2019-01-08T16:15:21.276Z,6.20
2019-01-08T16:17:52.051Z,6.31
2019-01-08T16:20:22.787Z,6.24
2019-01-08T16:22:53.562Z,6.24
2019-01-08T16:25:24.348Z,6.24
2019-01-08T16:27:55.371Z,6.24
2019-01-08T16:30:26.157Z,6.19
2019-01-08T16:32:57.036Z,6.16
2019-01-08T16:35:27.823Z,6.13
2019-01-08T16:37:58.620Z,6.16
2019-01-08T16:40:29.463Z,6.19
2019-01-08T16:43:00.379Z,6.15
2019-01-08T16:45:31.447Z,6.17
2019-01-08T16:48:02.524Z,6.08
2019-01-08T16:50:37.328Z,6.01
2019-01-08T16:53:08.493Z,6.10
2019-01-08T16:55:43.631Z,6.13
2019-01-08T16:58:18.727Z,6.10
2019-01-08T17:01:03.107Z,6.20
2019-01-08T17:03:36.036Z,6.12
2019-01-08T17:06:12.068Z,6.10
2019-01-08T17:09:00.880Z,6.10
2019-01-08T17:11:31.692Z,6.13
2019-01-08T17:14:02.491Z,6.11
2019-01-08T17:16:34.992Z,6.13
2019-01-08T17:19:06.022Z,5.99
2019-01-08T17:21:37.003Z,6.01
2019-01-08T17:24:07.847Z,5.95
2019-01-08T17:26:38.620Z,5.91
2019-01-08T17:29:09.502Z,5.94
2019-01-08T17:31:40.328Z,5.92
2019-01-08T17:34:11.136Z,6.03
2019-01-08T17:36:41.978Z,5.99
2019-01-08T17:39:12.811Z,5.98
2019-01-08T17:41:44.173Z,5.98
2019-01-08T17:44:15.403Z,5.96
2019-01-08T17:46:46.303Z,5.90
2019-01-08T17:49:17.699Z,5.93
2019-01-08T17:51:49.151Z,5.93
2019-01-08T17:54:20.029Z,5.86
2019-01-08T17:56:51.035Z,5.96
2019-01-08T17:59:23.165Z,5.96
2019-01-08T18:02:00.887Z,5.88
2019-01-08T18:04:33.903Z,5.91
2019-01-08T18:07:05.747Z,5.91
2019-01-08T18:09:36.532Z,5.92
2019-01-08T18:12:07.508Z,5.88
2019-01-08T18:14:38.796Z,5.84
2019-01-08T18:17:09.798Z,5.81
2019-01-08T18:19:40.916Z,5.84
2019-01-08T18:22:11.868Z,5.83
2019-01-08T18:24:42.724Z,5.75
2019-01-08T18:27:13.635Z,5.70
2019-01-08T18:29:44.491Z,5.75
2019-01-08T18:32:15.491Z,5.67
2019-01-08T18:34:46.634Z,5.57
2019-01-08T18:37:17.679Z,5.49
2019-01-08T18:39:48.670Z,5.41
2019-01-08T18:42:20.462Z,5.36
2019-01-08T18:44:51.345Z,5.23
2019-01-08T18:47:22.214Z,5.22
2019-01-08T18:49:53.110Z,5.16
2019-01-08T18:52:24.106Z,5.19
2019-01-08T18:54:54.962Z,5.22
2019-01-08T18:57:25.874Z,5.19
2019-01-08T18:59:57.154Z,5.10
2019-01-08T19:02:29.606Z,4.64
2019-01-08T19:05:01.345Z,4.06
2019-01-08T19:07:32.188Z,3.62
2019-01-08T19:10:12.393Z,3.50
2019-01-08T19:12:43.457Z,3.41
2019-01-08T19:15:14.567Z,3.45
2019-01-08T19:17:46.909Z,3.46
2019-01-08T19:20:17.840Z,3.47
2019-01-08T19:22:48.750Z,3.53
2019-01-08T19:25:19.640Z,3.60
2019-01-08T19:27:50.429Z,3.62
2019-01-08T19:30:21.338Z,3.70
2019-01-08T19:32:52.114Z,3.77
2019-01-08T19:35:31.245Z,3.76
2019-01-08T19:37:55.492Z,3.76
2019-01-08T19:40:26.290Z,3.73
2019-01-08T19:42:57.172Z,3.82
2019-01-08T19:45:28.034Z,3.89
2019-01-08T19:47:58.790Z,3.87
2019-01-08T19:50:29.622Z,3.87
2019-01-08T19:53:00.468Z,3.85
2019-01-08T19:55:31.269Z,3.83
2019-01-08T19:58:02.077Z,3.80
2019-01-08T20:00:33.247Z,3.81
2019-01-08T20:03:04.054Z,3.82
2019-01-08T20:05:34.931Z,3.80
2019-01-08T20:08:05.706Z,3.79
2019-01-08T20:10:36.606Z,3.80
2019-01-08T20:13:07.354Z,3.83
2019-01-08T20:15:38.155Z,3.76
2019-01-08T20:18:08.913Z,3.72
2019-01-08T20:20:39.722Z,3.70
2019-01-08T20:23:10.504Z,3.68
2019-01-08T20:25:41.336Z,3.62
2019-01-08T20:28:12.127Z,3.59
2019-01-08T20:30:43.159Z,3.59
2019-01-08T20:33:14.012Z,3.57
2019-01-08T20:35:44.764Z,3.50
2019-01-08T20:38:15.562Z,3.54
2019-01-08T20:40:46.355Z,3.50
2019-01-08T20:43:17.242Z,3.43
2019-01-08T20:45:48.122Z,3.49
2019-01-08T20:48:18.889Z,3.46
2019-01-08T20:50:49.674Z,3.48
2019-01-08T20:53:20.502Z,3.43
2019-01-08T20:55:51.351Z,3.40
2019-01-08T20:58:28.623Z,3.37
2019-01-08T21:00:54.774Z,3.36
2019-01-08T21:03:25.808Z,3.36
2019-01-08T21:05:56.621Z,3.37
2019-01-08T21:08:27.440Z,3.40
2019-01-08T21:13:40.881Z,3.38
2019-01-08T21:16:11.734Z,3.41
2019-01-08T21:18:42.574Z,3.39
2019-01-08T21:21:13.326Z,3.44
2019-01-08T21:23:44.114Z,3.41
2019-01-08T21:26:14.972Z,3.39
2019-01-08T21:28:45.874Z,3.39
2019-01-08T21:31:16.791Z,3.37
2019-01-08T21:33:47.751Z,3.42
2019-01-08T21:36:18.585Z,3.40
2019-01-08T21:38:49.376Z,3.50
2019-01-08T21:41:20.132Z,3.46
2019-01-08T21:43:50.916Z,3.49
2019-01-08T21:46:21.737Z,3.44
2019-01-08T21:48:52.553Z,3.46
2019-01-08T21:51:23.438Z,3.48
2019-01-08T21:53:54.230Z,3.44
2019-01-08T21:56:25.019Z,3.48
2019-01-08T21:58:55.896Z,3.49
2019-01-08T22:01:26.846Z,3.47
2019-01-08T22:03:57.613Z,3.48
2019-01-08T22:06:28.538Z,3.46
2019-01-08T22:08:59.276Z,3.50
2019-01-08T22:11:30.031Z,3.49
2019-01-08T22:14:00.827Z,3.45
2019-01-08T22:16:31.618Z,3.40
2019-01-08T22:19:02.590Z,3.50
2019-01-08T22:21:33.481Z,3.58
2019-01-08T22:24:04.286Z,3.56
2019-01-08T22:26:35.069Z,3.52
2019-01-08T22:29:05.821Z,3.51
2019-01-08T22:31:36.599Z,3.51
2019-01-08T22:34:10.228Z,3.55
2019-01-08T22:36:41.059Z,3.57
2019-01-08T22:39:11.878Z,3.57
2019-01-08T22:41:42.775Z,3.48
2019-01-08T22:44:13.929Z,3.48
2019-01-08T22:46:44.851Z,3.48
2019-01-08T22:49:15.612Z,3.47
2019-01-08T22:51:46.409Z,3.46
2019-01-08T22:54:17.305Z,3.37
2019-01-08T22:56:48.117Z,3.49
2019-01-08T22:59:18.848Z,3.34
2019-01-08T23:01:50.324Z,3.42
2019-01-08T23:04:22.297Z,3.34
2019-01-08T23:06:53.077Z,3.36
2019-01-08T23:09:24.649Z,3.35
2019-01-08T23:11:55.456Z,3.39
2019-01-08T23:14:26.229Z,3.37
2019-01-08T23:16:57.161Z,3.45
2019-01-08T23:19:27.963Z,3.45
2019-01-08T23:21:58.713Z,3.43
2019-01-08T23:24:29.547Z,3.40
2019-01-08T23:27:00.282Z,3.38
2019-01-08T23:29:31.029Z,3.41
2019-01-08T23:32:01.861Z,3.40
2019-01-08T23:34:32.684Z,3.37
2019-01-08T23:37:03.508Z,3.37
2019-01-08T23:39:34.248Z,3.41
2019-01-08T23:42:05.039Z,3.39
2019-01-08T23:44:35.856Z,3.29
2019-01-08T23:47:06.602Z,3.21
2019-01-08T23:49:37.395Z,3.29
2019-01-08T23:53:01.273Z,3.18
2019-01-08T23:55:35.500Z,3.20
2019-01-08T23:58:07.530Z,3.13
